Time;durP1;ratioP1;P1;durP2;ratioP2;P2;SDS_P1;SDS_P2;PMS_P1;PMS_P2;Temp;Humidity;BMP_temperature;BMP_pressure;BME280_temperature;BME280_humidity;BME280_pressure;Samples;Min_cycle;Max_cycle;Signal;HPM_P1;HPM_P2
2024/02/25 00:01:48;;;;;;;4.07;3.70;;;2.30;99.90;;;;;;5057385;28;20203;-73
2024/02/25 00:04:15;;;;;;;4.38;3.97;;;2.30;99.90;;;;;;5052969;27;20278;-73
2024/02/25 00:06:44;;;;;;;3.70;3.40;;;2.30;99.90;;;;;;5055457;27;20711;-73
2024/02/25 00:09:13;;;;;;;3.67;3.30;;;2.30;99.90;;;;;;5068102;28;20231;-73
2024/02/25 00:11:40;;;;;;;4.95;3.65;;;2.30;99.90;;;;;;5055470;28;20619;-73
2024/02/25 00:14:07;;;;;;;3.90;3.60;;;2.30;99.90;;;;;;5059481;28;20609;-73
2024/02/25 00:16:35;;;;;;;3.85;3.55;;;2.00;99.90;;;;;;5059184;27;20215;-73
2024/02/25 00:19:02;;;;;;;5.20;3.78;;;2.10;99.90;;;;;;5051790;27;20719;-73
2024/02/25 00:21:28;;;;;;;3.78;3.47;;;2.10;99.90;;;;;;5049282;27;20211;-73
2024/02/25 00:23:55;;;;;;;3.35;3.15;;;2.10;99.90;;;;;;5048067;28;20737;-73
2024/02/25 00:26:23;;;;;;;5.75;3.45;;;2.00;99.90;;;;;;5049305;28;20204;-73
2024/02/25 00:28:50;;;;;;;6.35;4.28;;;2.00;99.90;;;;;;5047724;28;20203;-73
2024/02/25 00:31:17;;;;;;;5.25;3.90;;;2.00;99.90;;;;;;5051584;28;20289;-73
2024/02/25 00:33:44;;;;;;;4.18;3.78;;;2.00;99.90;;;;;;5054324;27;20210;-73
2024/02/25 00:36:10;;;;;;;3.75;3.42;;;2.00;99.90;;;;;;5048512;28;20624;-73
2024/02/25 00:38:37;;;;;;;3.20;2.92;;;2.00;99.90;;;;;;5058850;28;20200;-73
2024/02/25 00:41:05;;;;;;;4.57;3.85;;;2.00;99.90;;;;;;5049771;27;20204;-73
2024/02/25 00:43:33;;;;;;;3.10;2.80;;;2.00;99.90;;;;;;5047810;28;20581;-73
2024/02/25 00:46:00;;;;;;;4.15;3.80;;;2.00;99.90;;;;;;5046928;28;20200;-73
2024/02/25 00:48:27;;;;;;;5.53;3.72;;;2.00;99.90;;;;;;5061852;28;20196;-73
2024/02/25 00:50:54;;;;;;;5.30;4.32;;;2.00;99.90;;;;;;5048498;27;20200;-73
2024/02/25 00:53:20;;;;;;;3.63;3.30;;;2.00;99.90;;;;;;5059154;28;20203;-73
2024/02/25 00:55:47;;;;;;;3.72;3.42;;;2.00;99.90;;;;;;5055110;27;20226;-73
2024/02/25 00:58:14;;;;;;;4.70;3.00;;;1.90;99.90;;;;;;5048452;28;20670;-73
2024/02/25 01:00:42;;;;;;;3.30;2.90;;;1.90;99.90;;;;;;5051372;27;20684;-73
2024/02/25 01:03:09;;;;;;;4.55;2.83;;;1.90;99.90;;;;;;5047618;28;20688;-73
2024/02/25 01:05:36;;;;;;;3.38;3.15;;;2.00;99.90;;;;;;5059146;28;20678;-73
2024/02/25 01:08:03;;;;;;;3.20;2.90;;;2.00;99.90;;;;;;5058219;27;20594;-73
2024/02/25 01:10:30;;;;;;;6.93;3.42;;;2.00;99.90;;;;;;5053275;27;20247;-73
2024/02/25 01:12:57;;;;;;;4.07;3.70;;;2.00;99.90;;;;;;5050332;27;20249;-72
2024/02/25 01:15:24;;;;;;;4.90;3.55;;;2.00;99.90;;;;;;5046746;27;20196;-73
2024/02/25 01:17:52;;;;;;;4.00;3.70;;;2.10;99.90;;;;;;5055288;28;20554;-73
2024/02/25 01:20:19;;;;;;;3.88;3.63;;;2.20;99.90;;;;;;5048793;28;20204;-73
2024/02/25 01:22:45;;;;;;;4.47;3.42;;;2.20;99.90;;;;;;5047773;28;20203;-73
2024/02/25 01:25:12;;;;;;;3.72;3.42;;;2.30;99.90;;;;;;5046837;28;20198;-73
2024/02/25 01:27:39;;;;;;;3.90;3.60;;;2.20;99.90;;;;;;5055744;27;20201;-73
2024/02/25 01:30:10;;;;;;;4.30;4.00;;;2.20;99.90;;;;;;5047515;28;20205;-73
2024/02/25 01:32:36;;;;;;;3.15;2.90;;;2.20;99.90;;;;;;5058689;28;20202;-73
2024/02/25 01:35:06;;;;;;;4.43;3.72;;;1.70;99.90;;;;;;5047421;28;20229;-73
2024/02/25 01:37:32;;;;;;;4.00;3.60;;;2.20;99.90;;;;;;5047964;28;20231;-73
2024/02/25 01:39:59;;;;;;;5.43;4.30;;;2.20;99.90;;;;;;5053308;27;20199;-73
2024/02/25 01:42:26;;;;;;;4.68;3.35;;;2.20;99.90;;;;;;5046439;28;20200;-73
2024/02/25 01:44:56;;;;;;;3.90;3.60;;;2.20;99.90;;;;;;5053901;28;20204;-73
2024/02/25 01:47:23;;;;;;;3.58;3.15;;;2.20;99.90;;;;;;5055870;28;20268;-73
2024/02/25 01:49:50;;;;;;;3.45;3.15;;;2.10;99.90;;;;;;5074012;27;20564;-73
2024/02/25 01:52:20;;;;;;;4.28;3.63;;;2.20;99.90;;;;;;5088533;27;20193;-73
2024/02/25 01:54:47;;;;;;;4.40;3.85;;;2.20;99.90;;;;;;5036257;28;20244;-73
2024/02/25 01:57:14;;;;;;;3.58;3.25;;;2.20;99.90;;;;;;5052464;28;20603;-73
2024/02/25 01:59:42;;;;;;;3.60;3.30;;;2.10;99.90;;;;;;5049681;28;20196;-73
2024/02/25 02:02:13;;;;;;;3.60;3.30;;;2.00;99.90;;;;;;5052191;28;20286;-73
2024/02/25 02:04:40;;;;;;;4.30;3.25;;;2.00;99.90;;;;;;5047427;27;20287;-73
2024/02/25 02:07:07;;;;;;;4.00;3.63;;;2.00;99.90;;;;;;5045649;28;20207;-73
2024/02/25 02:09:35;;;;;;;4.07;3.45;;;1.90;99.90;;;;;;5046888;28;20233;-73
2024/02/25 02:12:02;;;;;;;4.53;3.90;;;1.90;99.90;;;;;;5052802;28;20665;-73
2024/02/25 02:14:30;;;;;;;4.65;4.18;;;1.90;99.90;;;;;;5046674;28;20198;-73
2024/02/25 02:16:57;;;;;;;6.97;5.65;;;1.80;99.90;;;;;;5049564;28;20787;-73
2024/02/25 02:19:25;;;;;;;9.02;5.50;;;1.90;99.90;;;;;;5066248;28;20541;-73
2024/02/25 02:21:55;;;;;;;5.72;5.13;;;1.90;99.90;;;;;;5060952;27;20580;-73
2024/02/25 02:24:24;;;;;;;5.20;4.68;;;1.90;99.90;;;;;;5047459;28;20571;-73
2024/02/25 02:26:51;;;;;;;5.43;3.90;;;1.90;99.90;;;;;;5056751;28;20651;-73
2024/02/25 02:29:19;;;;;;;5.30;3.65;;;1.90;99.90;;;;;;5055679;28;20212;-73
2024/02/25 02:31:47;;;;;;;4.35;3.95;;;1.90;99.90;;;;;;5048147;28;20208;-73
2024/02/25 02:34:13;;;;;;;3.47;3.00;;;1.90;99.90;;;;;;5052579;27;20283;-73
2024/02/25 02:36:41;;;;;;;3.40;3.10;;;1.90;99.90;;;;;;5050861;28;20270;-73
2024/02/25 02:39:09;;;;;;;3.67;3.38;;;1.80;99.90;;;;;;5046543;28;20196;-73
2024/02/25 02:41:36;;;;;;;4.10;3.42;;;1.90;99.90;;;;;;5046648;28;20199;-73
2024/02/25 02:44:03;;;;;;;4.47;4.07;;;1.90;99.90;;;;;;5045193;28;20197;-73
2024/02/25 02:46:30;;;;;;;3.80;3.28;;;2.00;99.90;;;;;;5044732;28;20198;-73
2024/02/25 02:48:57;;;;;;;3.72;3.42;;;1.90;99.90;;;;;;5060472;28;20188;-73
2024/02/25 02:51:24;;;;;;;4.00;3.67;;;1.80;99.90;;;;;;5120644;27;20196;-73
2024/02/25 02:53:51;;;;;;;4.40;4.00;;;1.90;99.90;;;;;;5065225;27;20665;-73
2024/02/25 02:56:19;;;;;;;4.25;3.30;;;1.80;99.90;;;;;;5050164;28;20224;-73
2024/02/25 02:58:48;;;;;;;4.57;4.18;;;1.80;99.90;;;;;;5049602;27;20224;-73
2024/02/25 03:01:15;;;;;;;5.72;3.75;;;1.70;99.90;;;;;;5046606;28;20192;-73
2024/02/25 03:03:43;;;;;;;4.00;3.70;;;1.60;99.90;;;;;;5059166;28;20191;-73
2024/02/25 03:06:10;;;;;;;4.95;4.45;;;1.60;99.90;;;;;;5052208;28;20272;-73
2024/02/25 03:08:39;;;;;;;11.25;5.15;;;1.60;99.90;;;;;;5052568;28;20279;-73
2024/02/25 03:11:07;;;;;;;5.82;5.25;;;1.50;99.90;;;;;;5055605;27;20233;-73
2024/02/25 03:13:37;;;;;;;4.65;4.25;;;1.50;99.90;;;;;;5058936;28;20196;-73
2024/02/25 03:16:06;;;;;;;5.03;4.28;;;1.50;99.90;;;;;;5052873;27;20208;-73
2024/02/25 03:18:33;;;;;;;6.38;4.25;;;1.50;99.90;;;;;;5060189;28;20224;-73
2024/02/25 03:21:01;;;;;;;3.83;3.40;;;1.60;99.90;;;;;;5063445;28;20199;-73
2024/02/25 03:23:28;;;;;;;5.85;4.50;;;1.60;99.90;;;;;;5053037;28;20200;-73
2024/02/25 03:25:55;;;;;;;5.32;4.07;;;1.70;99.90;;;;;;5045519;28;20270;-73
2024/02/25 03:28:23;;;;;;;6.28;4.63;;;1.70;99.90;;;;;;5054965;28;20537;-73
2024/02/25 03:30:52;;;;;;;5.30;4.32;;;1.60;99.90;;;;;;5046172;28;20192;-73
2024/02/25 03:33:19;;;;;;;3.70;3.40;;;1.70;99.90;;;;;;5075701;27;20204;-73
2024/02/25 03:35:46;;;;;;;4.30;3.50;;;1.60;99.90;;;;;;5103283;27;20212;-73
2024/02/25 03:38:13;;;;;;;4.32;3.95;;;1.70;99.90;;;;;;5079131;27;20254;-73
2024/02/25 03:40:40;;;;;;;3.60;3.30;;;1.70;99.90;;;;;;5046848;28;20726;-73
2024/02/25 03:43:12;;;;;;;2.97;2.70;;;1.70;99.90;;;;;;5051110;28;20217;-73
2024/02/25 03:45:40;;;;;;;3.00;2.70;;;1.70;99.90;;;;;;5046398;28;20257;-73
2024/02/25 03:48:09;;;;;;;2.95;2.60;;;1.70;99.90;;;;;;5047327;28;20212;-73
2024/02/25 03:50:37;;;;;;;2.72;2.53;;;1.80;99.90;;;;;;5069648;27;20292;-73
2024/02/25 03:53:04;;;;;;;2.80;2.58;;;1.80;99.90;;;;;;5069025;27;20700;-73
2024/02/25 03:55:31;;;;;;;3.53;2.85;;;1.80;99.90;;;;;;5044706;27;20202;-73
2024/02/25 03:57:59;;;;;;;3.80;3.42;;;1.90;99.90;;;;;;5058364;28;20294;-73
2024/02/25 04:00:27;;;;;;;2.80;2.60;;;1.90;99.90;;;;;;5113836;27;20191;-73
2024/02/25 04:02:54;;;;;;;2.92;2.63;;;1.90;99.90;;;;;;5051359;28;20585;-73
2024/02/25 04:05:23;;;;;;;3.00;2.67;;;1.90;99.90;;;;;;5042303;28;20257;-73
2024/02/25 04:07:50;;;;;;;3.90;2.70;;;1.90;99.90;;;;;;5044359;28;20667;-73
2024/02/25 04:10:17;;;;;;;3.33;3.03;;;1.90;99.90;;;;;;5058292;28;20196;-73
2024/02/25 04:12:44;;;;;;;3.22;2.92;;;1.80;99.90;;;;;;5050480;28;20249;-73
2024/02/25 04:15:11;;;;;;;3.67;2.83;;;1.90;99.90;;;;;;5053171;28;20652;-73
2024/02/25 04:17:38;;;;;;;2.75;2.47;;;1.90;99.90;;;;;;5061302;27;20299;-73
2024/02/25 04:20:05;;;;;;;4.78;3.05;;;1.90;99.90;;;;;;5048245;27;20200;-73
2024/02/25 04:22:33;;;;;;;4.65;2.80;;;1.90;99.90;;;;;;5042753;28;20196;-73
2024/02/25 04:25:00;;;;;;;4.18;3.10;;;1.90;99.90;;;;;;5040185;28;20207;-73
2024/02/25 04:27:27;;;;;;;3.13;2.85;;;2.00;99.90;;;;;;5039940;28;20198;-73
2024/02/25 04:29:54;;;;;;;2.65;2.45;;;2.00;99.90;;;;;;5038569;28;20193;-73
2024/02/25 04:32:21;;;;;;;3.75;3.45;;;2.00;99.90;;;;;;5044717;28;20241;-73
2024/02/25 04:34:48;;;;;;;2.35;2.17;;;2.00;99.90;;;;;;5046576;27;20291;-73
2024/02/25 04:37:15;;;;;;;3.75;2.80;;;2.00;99.90;;;;;;5043973;28;20234;-73
2024/02/25 04:39:43;;;;;;;3.13;2.83;;;2.00;99.90;;;;;;5049151;28;20226;-73
2024/02/25 04:42:09;;;;;;;2.78;2.20;;;2.00;99.90;;;;;;5046758;28;20206;-73
2024/02/25 04:44:37;;;;;;;4.40;2.85;;;2.10;99.90;;;;;;5049708;28;20273;-73
2024/02/25 04:47:04;;;;;;;2.28;2.17;;;2.10;99.90;;;;;;5057479;27;20712;-73
2024/02/25 04:49:30;;;;;;;2.50;2.30;;;2.10;99.90;;;;;;5060341;28;20203;-73
2024/02/25 04:51:57;;;;;;;3.08;2.60;;;2.10;99.90;;;;;;5054090;28;20280;-73
2024/02/25 04:54:24;;;;;;;4.05;3.17;;;2.10;99.90;;;;;;5056284;28;20196;-73
2024/02/25 04:56:54;;;;;;;3.70;3.30;;;2.10;99.90;;;;;;5050333;27;20189;-73
2024/02/25 04:59:20;;;;;;;3.13;2.83;;;2.10;99.90;;;;;;5047799;28;20228;-73
2024/02/25 05:01:48;;;;;;;4.22;3.47;;;2.20;99.90;;;;;;5051767;28;20198;-73
2024/02/25 05:04:15;;;;;;;3.50;3.13;;;2.10;99.90;;;;;;5052294;28;20292;-73
2024/02/25 05:06:41;;;;;;;2.75;2.50;;;2.20;99.90;;;;;;5056869;27;20661;-73
2024/02/25 05:09:08;;;;;;;3.22;2.30;;;2.20;99.90;;;;;;5096617;27;20200;-73
2024/02/25 05:11:35;;;;;;;5.22;2.95;;;2.20;99.90;;;;;;5070669;27;20295;-73
2024/02/25 05:14:04;;;;;;;2.85;2.65;;;2.20;99.90;;;;;;5060388;28;20279;-73
2024/02/25 05:16:30;;;;;;;4.65;3.30;;;2.20;99.90;;;;;;5055621;27;20197;-73
2024/02/25 05:18:57;;;;;;;5.40;3.00;;;2.10;99.90;;;;;;5064082;28;20216;-73
2024/02/25 05:21:24;;;;;;;5.80;3.13;;;2.20;99.90;;;;;;5052029;28;20206;-73
2024/02/25 05:23:51;;;;;;;4.45;3.50;;;2.10;99.90;;;;;;5031812;28;20206;-73
2024/02/25 05:26:18;;;;;;;2.92;2.63;;;2.20;99.90;;;;;;5056944;28;20287;-73
2024/02/25 05:28:44;;;;;;;3.05;2.75;;;2.10;99.90;;;;;;5049159;28;20201;-73
2024/02/25 05:31:14;;;;;;;4.25;3.85;;;2.20;99.90;;;;;;5049838;28;20207;-73
2024/02/25 05:33:41;;;;;;;3.80;2.92;;;2.10;99.90;;;;;;5048262;28;20209;-73
2024/02/25 05:36:08;;;;;;;4.13;3.72;;;2.10;99.90;;;;;;5047151;28;20243;-73
2024/02/25 05:38:35;;;;;;;3.10;2.80;;;2.10;99.90;;;;;;5044010;28;20228;-73
2024/02/25 05:41:02;;;;;;;2.80;2.60;;;2.00;99.90;;;;;;5056740;28;20189;-73
2024/02/25 05:43:29;;;;;;;3.42;3.13;;;2.00;99.90;;;;;;5048324;28;20187;-73
2024/02/25 05:45:56;;;;;;;3.83;3.20;;;2.00;99.90;;;;;;5052355;28;20775;-73
2024/02/25 05:48:24;;;;;;;3.10;2.80;;;2.00;99.90;;;;;;5071687;27;20207;-73
2024/02/25 05:50:51;;;;;;;3.05;2.80;;;2.00;99.90;;;;;;5041487;28;20192;-73
2024/02/25 05:53:18;;;;;;;3.47;3.10;;;2.00;99.90;;;;;;5050352;28;20208;-73
2024/02/25 05:55:46;;;;;;;2.80;2.60;;;1.90;99.90;;;;;;5050947;28;20188;-73
2024/02/25 05:58:12;;;;;;;3.67;3.33;;;1.90;99.90;;;;;;5053533;28;20326;-73
2024/02/25 06:00:39;;;;;;;4.00;3.67;;;1.80;99.90;;;;;;5050155;28;20282;-73
2024/02/25 06:03:05;;;;;;;2.90;2.70;;;1.90;99.90;;;;;;5049522;27;20192;-73
2024/02/25 06:05:33;;;;;;;4.70;3.47;;;1.80;99.90;;;;;;5047503;28;20201;-73
2024/02/25 06:08:01;;;;;;;4.05;3.40;;;1.90;99.90;;;;;;5047746;28;20394;-73
2024/02/25 06:10:28;;;;;;;3.15;2.85;;;1.50;99.90;;;;;;5046831;28;20193;-73
2024/02/25 06:12:54;;;;;;;3.60;3.30;;;1.80;99.90;;;;;;5046230;28;20670;-73
2024/02/25 06:15:21;;;;;;;3.85;3.47;;;1.90;99.90;;;;;;5045244;28;20189;-72
2024/02/25 06:17:48;;;;;;;3.85;3.55;;;2.10;99.90;;;;;;5045947;27;20229;-73
2024/02/25 06:20:15;;;;;;;3.95;3.30;;;1.50;99.90;;;;;;5045927;28;20687;-73
2024/02/25 06:22:43;;;;;;;4.40;4.00;;;1.50;99.90;;;;;;5046410;28;20199;-72
2024/02/25 06:25:10;;;;;;;4.00;3.70;;;1.60;99.90;;;;;;5045556;28;20657;-72
2024/02/25 06:27:39;;;;;;;4.00;3.70;;;1.60;99.90;;;;;;5046528;28;20236;-73
2024/02/25 06:30:08;;;;;;;4.18;3.78;;;1.70;99.90;;;;;;5045909;27;21685;-73
2024/02/25 06:32:35;;;;;;;3.72;3.42;;;1.70;99.90;;;;;;5045795;28;20209;-73
2024/02/25 06:35:02;;;;;;;3.80;3.50;;;1.60;99.90;;;;;;5046994;28;20199;-73
2024/02/25 06:37:31;;;;;;;5.55;3.80;;;1.70;99.90;;;;;;5044487;28;20184;-73
2024/02/25 06:39:59;;;;;;;6.20;4.07;;;1.70;99.90;;;;;;5047612;27;20195;-72
2024/02/25 06:42:26;;;;;;;4.10;3.70;;;1.60;99.90;;;;;;5044652;28;20547;-72
2024/02/25 06:44:53;;;;;;;5.13;3.50;;;1.60;99.90;;;;;;5046652;28;20199;-73
2024/02/25 06:47:19;;;;;;;4.22;3.90;;;1.50;99.90;;;;;;5046814;28;20208;-72
2024/02/25 06:49:46;;;;;;;3.95;3.53;;;1.30;99.90;;;;;;5047655;28;20208;-73
2024/02/25 06:52:13;;;;;;;4.95;4.55;;;1.50;99.90;;;;;;5046958;28;20611;-75
2024/02/25 06:54:43;;;;;;;7.47;3.30;;;1.50;99.90;;;;;;5045377;27;20203;-72
2024/02/25 06:57:15;;;;;;;4.18;3.75;;;1.40;99.90;;;;;;5043799;27;20866;-72
2024/02/25 06:59:42;;;;;;;4.32;3.92;;;1.60;99.90;;;;;;5044842;28;20224;-72
2024/02/25 07:02:08;;;;;;;10.07;5.00;;;1.70;99.90;;;;;;5020938;28;20193;-72
2024/02/25 07:04:36;;;;;;;5.10;4.22;;;1.80;99.90;;;;;;5017194;28;20204;-72
2024/02/25 07:07:03;;;;;;;4.47;4.07;;;1.80;99.90;;;;;;5023842;28;20200;-72
2024/02/25 07:09:30;;;;;;;4.75;3.90;;;1.90;99.90;;;;;;5041432;28;20197;-75
2024/02/25 07:11:57;;;;;;;6.30;4.57;;;2.00;99.90;;;;;;5018594;28;20197;-75
2024/02/25 07:14:28;;;;;;;4.35;3.95;;;2.00;99.90;;;;;;5026383;28;20193;-75
2024/02/25 07:16:54;;;;;;;4.68;4.13;;;2.30;99.90;;;;;;5033919;28;20202;-75
2024/02/25 07:19:21;;;;;;;4.68;4.03;;;2.50;99.90;;;;;;5034872;28;20221;-75
2024/02/25 07:21:48;;;;;;;5.80;4.50;;;2.60;99.90;;;;;;5016871;28;20191;-75
2024/02/25 07:24:15;;;;;;;3.78;3.47;;;2.80;99.90;;;;;;5022212;28;20196;-75
2024/02/25 07:26:41;;;;;;;3.40;3.20;;;3.00;99.90;;;;;;5024953;28;20202;-75
2024/02/25 07:29:08;;;;;;;3.75;3.38;;;3.10;99.90;;;;;;5024312;28;20284;-75
2024/02/25 07:31:36;;;;;;;4.68;3.75;;;3.10;99.90;;;;;;5032301;28;20202;-75
2024/02/25 07:34:03;;;;;;;3.97;3.60;;;3.20;99.90;;;;;;5022789;28;20192;-75
2024/02/25 07:36:30;;;;;;;2.70;2.50;;;3.30;99.90;;;;;;5038395;28;20216;-75
2024/02/25 07:38:57;;;;;;;5.65;3.45;;;3.30;99.90;;;;;;5020187;28;20227;-75
2024/02/25 07:41:23;;;;;;;2.92;2.72;;;3.30;99.90;;;;;;5023953;28;20283;-75
2024/02/25 07:43:50;;;;;;;3.60;3.20;;;3.40;99.90;;;;;;5019513;28;20495;-75
2024/02/25 07:46:17;;;;;;;3.20;2.90;;;3.50;99.90;;;;;;5021226;28;20198;-75
2024/02/25 07:48:46;;;;;;;2.90;2.70;;;3.50;99.90;;;;;;5012575;28;20658;-75
2024/02/25 07:51:13;;;;;;;3.15;2.85;;;3.50;99.90;;;;;;5026359;28;20206;-75
2024/02/25 07:53:40;;;;;;;8.88;3.42;;;3.60;99.90;;;;;;5024147;28;20286;-75
2024/02/25 07:56:07;;;;;;;3.40;2.80;;;3.70;99.90;;;;;;5033123;28;20203;-75
2024/02/25 07:58:33;;;;;;;3.47;2.78;;;3.80;99.90;;;;;;5029921;28;20215;-74
2024/02/25 08:01:00;;;;;;;3.10;2.80;;;4.00;99.90;;;;;;5025900;28;20204;-74
2024/02/25 08:03:27;;;;;;;3.38;2.60;;;4.00;99.90;;;;;;5045307;28;20211;-74
2024/02/25 08:05:55;;;;;;;3.47;3.10;;;4.10;99.90;;;;;;5018684;28;20194;-74
2024/02/25 08:08:22;;;;;;;3.22;2.33;;;4.20;99.90;;;;;;5033959;28;20210;-73
2024/02/25 08:10:49;;;;;;;3.30;2.90;;;4.20;99.80;;;;;;5022224;28;20219;-74
2024/02/25 08:13:16;;;;;;;4.68;2.70;;;4.30;99.70;;;;;;5021907;28;20678;-74
2024/02/25 08:15:43;;;;;;;2.90;2.70;;;4.30;99.60;;;;;;5025440;28;20193;-74
2024/02/25 08:18:10;;;;;;;2.78;2.58;;;4.30;99.50;;;;;;5028116;28;20224;-74
2024/02/25 08:20:37;;;;;;;3.15;2.65;;;4.40;99.40;;;;;;5030368;28;20299;-72
2024/02/25 08:23:05;;;;;;;2.55;2.35;;;4.50;99.60;;;;;;5031923;28;20590;-73
2024/02/25 08:25:32;;;;;;;2.60;2.40;;;4.60;99.30;;;;;;5032319;27;20284;-72
2024/02/25 08:27:58;;;;;;;2.33;2.13;;;4.60;99.00;;;;;;5028450;28;20207;-72
2024/02/25 08:30:25;;;;;;;3.35;2.78;;;4.80;99.20;;;;;;5049488;27;20208;-73
2024/02/25 08:32:53;;;;;;;4.15;2.92;;;4.90;99.20;;;;;;5027937;27;20220;-73
2024/02/25 08:35:20;;;;;;;3.35;2.60;;;5.00;99.00;;;;;;5026534;28;20288;-72
2024/02/25 08:37:47;;;;;;;4.20;2.47;;;5.40;99.90;;;;;;5077076;27;20546;-73
2024/02/25 08:40:16;;;;;;;2.25;2.05;;;5.30;98.10;;;;;;5131611;27;20655;-73
2024/02/25 08:42:43;;;;;;;2.92;2.20;;;5.50;99.50;;;;;;5031443;28;20205;-72
2024/02/25 08:45:10;;;;;;;2.67;2.38;;;5.50;97.50;;;;;;5034966;28;20193;-73
2024/02/25 08:47:37;;;;;;;2.83;2.40;;;5.40;97.20;;;;;;5035068;28;20207;-73
2024/02/25 08:50:04;;;;;;;2.40;2.20;;;5.90;99.70;;;;;;5050213;27;20201;-73
2024/02/25 08:52:31;;;;;;;3.17;2.38;;;5.70;96.90;;;;;;5074688;27;20209;-75
2024/02/25 08:54:57;;;;;;;2.42;2.22;;;5.70;96.90;;;;;;5020139;28;20204;-75
2024/02/25 08:57:30;;;;;;;2.67;2.47;;;5.80;96.30;;;;;;5043494;28;20198;-75
2024/02/25 08:59:57;;;;;;;2.05;1.95;;;5.70;96.90;;;;;;5060412;27;20240;-75
2024/02/25 09:02:23;;;;;;;2.65;1.90;;;5.70;96.60;;;;;;5086136;27;20208;-75
2024/02/25 09:04:51;;;;;;;2.00;1.80;;;5.80;96.50;;;;;;5065158;27;20211;-75
2024/02/25 09:07:19;;;;;;;1.80;1.70;;;5.80;96.40;;;;;;5131715;27;20213;-75
2024/02/25 09:09:46;;;;;;;2.60;2.28;;;5.80;96.20;;;;;;5044743;28;20197;-75
2024/02/25 09:12:13;;;;;;;2.03;1.83;;;5.80;96.30;;;;;;5043475;28;20217;-75
2024/02/25 09:14:42;;;;;;;4.45;1.98;;;6.00;96.10;;;;;;5096894;27;20600;-75
2024/02/25 09:17:08;;;;;;;2.00;1.90;;;5.90;95.90;;;;;;5106331;27;20241;-75
2024/02/25 09:19:35;;;;;;;2.05;1.85;;;5.90;95.70;;;;;;5052979;27;20227;-75
2024/02/25 09:22:02;;;;;;;2.45;1.88;;;6.00;96.00;;;;;;5029084;27;20292;-75
2024/02/25 09:24:29;;;;;;;2.45;1.95;;;6.10;95.40;;;;;;5032314;28;20277;-75
2024/02/25 09:26:56;;;;;;;2.08;1.95;;;6.00;95.40;;;;;;5037000;28;20232;-75
2024/02/25 09:29:23;;;;;;;2.35;2.15;;;6.00;95.70;;;;;;5014517;28;20200;-75
2024/02/25 09:31:54;;;;;;;2.00;1.52;;;6.00;95.60;;;;;;5015081;28;20197;-75
2024/02/25 09:34:21;;;;;;;1.70;1.60;;;6.10;95.50;;;;;;5032363;28;20673;-75
2024/02/25 09:36:48;;;;;;;1.52;1.38;;;6.00;95.20;;;;;;5019904;28;20198;-75
2024/02/25 09:39:16;;;;;;;2.22;1.42;;;6.10;95.70;;;;;;5032800;28;20212;-75
2024/02/25 09:41:43;;;;;;;1.90;1.70;;;6.10;95.20;;;;;;5038873;27;20185;-75
2024/02/25 09:44:22;;;;;;;1.35;1.25;;;6.10;95.20;;;;;;5030157;28;20193;-75
2024/02/25 09:46:51;;;;;;;2.53;1.27;;;6.30;94.80;;;;;;5010781;28;20201;-75
2024/02/25 09:49:19;;;;;;;1.57;1.47;;;6.40;94.50;;;;;;5031013;28;20205;-75
2024/02/25 09:51:48;;;;;;;1.77;1.67;;;6.50;94.50;;;;;;5027947;28;20637;-75
2024/02/25 09:54:15;;;;;;;2.13;1.92;;;6.50;94.10;;;;;;5026698;28;20209;-75
2024/02/25 09:56:46;;;;;;;1.30;1.20;;;6.50;94.30;;;;;;5018207;28;20217;-75
2024/02/25 09:59:13;;;;;;;2.20;2.00;;;6.60;93.60;;;;;;5026071;28;20224;-75
2024/02/25 10:01:42;;;;;;;1.40;1.30;;;6.60;94.10;;;;;;5036255;28;20626;-75
2024/02/25 10:04:11;;;;;;;1.85;1.75;;;6.60;93.90;;;;;;5023096;28;20829;-75
2024/02/25 10:06:38;;;;;;;1.65;1.35;;;6.70;93.70;;;;;;5012873;28;20211;-75
2024/02/25 10:09:07;;;;;;;2.07;1.87;;;6.90;93.60;;;;;;5033253;28;20197;-75
2024/02/25 10:11:34;;;;;;;1.20;1.10;;;6.90;92.90;;;;;;5033076;28;20653;-75
2024/02/25 10:14:03;;;;;;;2.20;2.10;;;7.00;92.20;;;;;;5034456;28;20209;-75
2024/02/25 10:16:30;;;;;;;1.37;1.00;;;6.80;92.30;;;;;;5018637;28;20712;-75
2024/02/25 10:18:56;;;;;;;1.17;1.08;;;7.00;91.80;;;;;;5037277;28;20758;-75
2024/02/25 10:21:24;;;;;;;0.60;0.50;;;7.10;91.60;;;;;;5026749;28;20197;-75
2024/02/25 10:23:55;;;;;;;0.77;0.63;;;7.20;91.20;;;;;;5025625;28;20647;-75
2024/02/25 10:26:23;;;;;;;0.95;0.80;;;7.30;90.60;;;;;;5030381;28;20631;-75
2024/02/25 10:29:03;;;;;;;0.93;0.80;;;7.30;91.10;;;;;;5030620;28;20624;-75
2024/02/25 10:31:30;;;;;;;5.30;0.97;;;7.50;91.00;;;;;;5019219;28;20651;-75
2024/02/25 10:33:57;;;;;;;0.60;0.60;;;7.70;90.10;;;;;;5025523;28;21248;-75
2024/02/25 10:36:26;;;;;;;0.97;0.87;;;7.80;88.70;;;;;;5014069;28;20616;-75
2024/02/25 10:38:55;;;;;;;1.80;1.03;;;7.80;87.60;;;;;;5015764;28;21258;-75
2024/02/25 10:41:22;;;;;;;0.93;0.80;;;8.00;87.60;;;;;;5019106;28;20641;-75
2024/02/25 10:43:53;;;;;;;1.43;0.67;;;8.60;87.20;;;;;;5039654;28;20635;-75
2024/02/25 10:46:28;;;;;;;0.90;0.77;;;8.20;92.80;;;;;;5016413;28;21083;-75
2024/02/25 10:48:57;;;;;;;0.93;0.80;;;8.20;85.00;;;;;;5027455;28;20627;-74
2024/02/25 10:51:27;;;;;;;0.70;0.50;;;8.20;85.70;;;;;;5053251;27;20623;-74
2024/02/25 10:53:54;;;;;;;0.60;0.60;;;8.40;83.40;;;;;;5024103;28;20623;-75
2024/02/25 10:56:22;;;;;;;1.23;0.90;;;8.40;82.90;;;;;;5028515;28;20626;-74
2024/02/25 10:58:50;;;;;;;1.07;0.60;;;8.50;89.50;;;;;;5010450;28;20747;-75
2024/02/25 11:01:19;;;;;;;0.80;0.60;;;8.40;82.40;;;;;;5018160;28;20638;-74
2024/02/25 11:03:47;;;;;;;0.77;0.70;;;8.30;83.10;;;;;;5032493;28;20635;-74
2024/02/25 11:06:31;;;;;;;2.97;0.80;;;8.40;84.00;;;;;;5026006;28;20633;-74
2024/02/25 11:09:04;;;;;;;1.43;1.00;;;9.30;89.40;;;;;;5019910;28;20626;-74
2024/02/25 11:11:31;;;;;;;1.20;1.00;;;8.80;82.50;;;;;;5027443;28;20618;-74
2024/02/25 11:14:00;;;;;;;1.17;1.03;;;8.70;81.90;;;;;;5027766;28;20630;-74
2024/02/25 11:16:31;;;;;;;1.10;1.00;;;8.80;83.10;;;;;;5032050;28;20627;-74
2024/02/25 11:19:00;;;;;;;0.77;0.70;;;8.80;82.90;;;;;;5018805;28;20635;-75
2024/02/25 11:21:30;;;;;;;1.00;1.00;;;8.80;82.30;;;;;;5036616;28;20626;-75
2024/02/25 11:23:58;;;;;;;1.00;0.83;;;8.80;83.70;;;;;;5037630;28;21029;-75
2024/02/25 11:26:38;;;;;;;0.90;0.90;;;8.70;88.30;;;;;;5027180;28;21222;-75
2024/02/25 11:29:18;;;;;;;0.90;0.80;;;8.80;83.30;;;;;;5030918;28;20971;-75
2024/02/25 11:31:55;;;;;;;0.70;0.70;;;8.90;82.80;;;;;;5006538;28;20628;-75
2024/02/25 11:34:23;;;;;;;1.80;1.10;;;9.00;81.70;;;;;;5026564;28;20635;-75
2024/02/25 11:36:54;;;;;;;1.33;1.23;;;9.00;82.40;;;;;;5020054;28;20634;-74
2024/02/25 11:39:26;;;;;;;0.73;0.73;;;9.00;81.70;;;;;;5021034;28;20655;-75
2024/02/25 11:41:54;;;;;;;0.93;0.90;;;9.10;82.50;;;;;;5049815;28;20722;-75
2024/02/25 11:44:24;;;;;;;1.10;1.00;;;9.20;82.20;;;;;;5028904;28;20637;-75
2024/02/25 11:46:51;;;;;;;1.77;1.30;;;9.50;82.70;;;;;;5023960;28;20613;-75
2024/02/25 11:49:18;;;;;;;1.57;0.90;;;9.70;81.10;;;;;;5033683;28;20624;-75
2024/02/25 11:51:45;;;;;;;1.40;1.13;;;9.80;80.70;;;;;;5023372;27;20621;-75
2024/02/25 11:54:13;;;;;;;1.50;1.40;;;9.70;81.20;;;;;;5032298;28;20628;-74
2024/02/25 11:56:41;;;;;;;1.00;0.90;;;9.80;82.60;;;;;;5027909;28;20624;-75
2024/02/25 11:59:08;;;;;;;1.10;1.00;;;9.90;79.80;;;;;;5026248;28;20639;-74
2024/02/25 12:01:36;;;;;;;1.27;1.17;;;9.90;81.10;;;;;;5041089;28;20665;-75
2024/02/25 12:04:03;;;;;;;1.00;0.87;;;9.90;79.00;;;;;;5030569;28;20620;-74
2024/02/25 12:06:34;;;;;;;0.70;0.70;;;10.00;76.00;;;;;;5027717;28;20619;-74
2024/02/25 12:09:01;;;;;;;0.60;0.60;;;10.00;76.60;;;;;;5045328;27;20682;-75
2024/02/25 12:11:28;;;;;;;1.27;0.70;;;9.80;76.10;;;;;;5017237;28;20714;-75
2024/02/25 12:14:04;;;;;;;1.20;0.70;;;9.90;76.60;;;;;;5012909;28;20627;-75
2024/02/25 12:16:31;;;;;;;0.60;0.60;;;9.90;75.90;;;;;;5022079;28;20633;-75
2024/02/25 12:18:58;;;;;;;2.13;0.80;;;9.90;74.90;;;;;;5023995;28;20616;-75
2024/02/25 12:21:26;;;;;;;1.03;0.83;;;9.90;75.80;;;;;;5025352;28;21259;-75
2024/02/25 12:23:56;;;;;;;0.80;0.60;;;10.00;73.60;;;;;;5035183;28;20648;-75
2024/02/25 12:26:23;;;;;;;1.67;0.70;;;10.10;69.80;;;;;;5019966;28;20693;-75
2024/02/25 12:28:50;;;;;;;1.17;1.03;;;10.10;72.80;;;;;;5033602;28;20618;-75
2024/02/25 12:31:18;;;;;;;1.50;0.60;;;10.20;71.30;;;;;;5048932;27;20638;-76
2024/02/25 12:33:47;;;;;;;0.70;0.60;;;10.30;69.30;;;;;;5058472;27;20745;-76
2024/02/25 12:36:15;;;;;;;0.50;0.40;;;10.40;69.90;;;;;;5047143;27;20610;-75
2024/02/25 12:38:49;;;;;;;0.90;0.60;;;10.60;65.30;;;;;;5009589;28;20629;-76
2024/02/25 12:41:16;;;;;;;1.00;0.53;;;10.50;65.80;;;;;;5056211;27;20666;-75
2024/02/25 12:43:45;;;;;;;0.40;0.40;;;10.50;65.80;;;;;;5017359;28;20741;-75
2024/02/25 12:46:12;;;;;;;1.00;0.43;;;10.50;64.90;;;;;;5025118;28;20727;-75
2024/02/25 12:48:42;;;;;;;0.60;0.60;;;10.50;63.80;;;;;;5036805;28;20625;-76
2024/02/25 12:51:09;;;;;;;0.70;0.50;;;10.50;63.90;;;;;;5031907;28;20622;-75
2024/02/25 12:53:36;;;;;;;1.30;1.17;;;10.50;64.30;;;;;;5031659;28;20622;-75
2024/02/25 12:56:04;;;;;;;0.70;0.43;;;10.50;64.90;;;;;;5017211;28;20618;-75
2024/02/25 12:58:31;;;;;;;0.80;0.70;;;10.40;63.90;;;;;;5026247;28;20633;-75